sensor_id;sensor_type;location;lat;lon;timestamp;P1;durP1;ratioP1;P2;durP2;ratioP2
2474;SDS011;1248;48.694;10.160;2023-08-01T00:00:33;10.10;;;5.40;;
2474;SDS011;1248;48.694;10.160;2023-08-01T00:03:00;7.30;;;4.73;;
2474;SDS011;1248;48.694;10.160;2023-08-01T00:05:27;7.20;;;4.80;;
2474;SDS011;1248;48.694;10.160;2023-08-01T00:07:54;6.87;;;4.80;;
2474;SDS011;1248;48.694;10.160;2023-08-01T00:10:21;6.40;;;4.77;;
2474;SDS011;1248;48.694;10.160;2023-08-01T00:12:48;8.83;;;5.00;;
2474;SDS011;1248;48.694;10.160;2023-08-01T00:15:15;9.33;;;4.60;;
2474;SDS011;1248;48.694;10.160;2023-08-01T00:17:43;7.10;;;4.30;;
2474;SDS011;1248;48.694;10.160;2023-08-01T00:20:10;6.30;;;4.57;;
2474;SDS011;1248;48.694;10.160;2023-08-01T00:22:37;7.53;;;4.77;;
2474;SDS011;1248;48.694;10.160;2023-08-01T00:25:05;8.93;;;5.10;;
2474;SDS011;1248;48.694;10.160;2023-08-01T00:27:32;12.93;;;5.23;;
2474;SDS011;1248;48.694;10.160;2023-08-01T00:29:59;6.17;;;4.23;;
2474;SDS011;1248;48.694;10.160;2023-08-01T00:32:26;8.63;;;4.73;;
2474;SDS011;1248;48.694;10.160;2023-08-01T00:34:55;12.63;;;4.57;;
2474;SDS011;1248;48.694;10.160;2023-08-01T00:37:22;12.83;;;4.90;;
2474;SDS011;1248;48.694;10.160;2023-08-01T00:39:49;7.63;;;4.80;;
2474;SDS011;1248;48.694;10.160;2023-08-01T00:42:16;5.73;;;4.60;;
2474;SDS011;1248;48.694;10.160;2023-08-01T00:44:43;6.73;;;4.80;;
2474;SDS011;1248;48.694;10.160;2023-08-01T00:47:10;7.27;;;4.60;;
2474;SDS011;1248;48.694;10.160;2023-08-01T00:49:37;7.73;;;5.20;;
2474;SDS011;1248;48.694;10.160;2023-08-01T00:52:06;9.27;;;5.33;;
2474;SDS011;1248;48.694;10.160;2023-08-01T00:54:33;10.73;;;5.23;;
2474;SDS011;1248;48.694;10.160;2023-08-01T00:57:02;7.97;;;4.73;;
2474;SDS011;1248;48.694;10.160;2023-08-01T00:59:29;15.23;;;5.20;;
2474;SDS011;1248;48.694;10.160;2023-08-01T01:01:57;9.20;;;5.83;;
2474;SDS011;1248;48.694;10.160;2023-08-01T01:04:25;8.40;;;6.00;;
2474;SDS011;1248;48.694;10.160;2023-08-01T01:06:55;14.50;;;5.83;;
2474;SDS011;1248;48.694;10.160;2023-08-01T01:09:27;8.03;;;4.53;;
2474;SDS011;1248;48.694;10.160;2023-08-01T01:11:57;12.27;;;5.33;;
2474;SDS011;1248;48.694;10.160;2023-08-01T01:14:24;11.07;;;5.20;;
2474;SDS011;1248;48.694;10.160;2023-08-01T01:16:51;6.87;;;5.27;;
2474;SDS011;1248;48.694;10.160;2023-08-01T01:19:18;7.37;;;5.07;;
2474;SDS011;1248;48.694;10.160;2023-08-01T01:21:46;8.83;;;4.90;;
2474;SDS011;1248;48.694;10.160;2023-08-01T01:24:14;10.07;;;5.00;;
2474;SDS011;1248;48.694;10.160;2023-08-01T01:26:42;8.20;;;4.87;;
2474;SDS011;1248;48.694;10.160;2023-08-01T01:29:10;5.90;;;4.47;;
2474;SDS011;1248;48.694;10.160;2023-08-01T01:31:37;9.17;;;4.93;;
2474;SDS011;1248;48.694;10.160;2023-08-01T01:34:05;8.80;;;4.57;;
2474;SDS011;1248;48.694;10.160;2023-08-01T01:36:32;8.23;;;5.07;;
2474;SDS011;1248;48.694;10.160;2023-08-01T01:39:01;10.60;;;5.00;;
2474;SDS011;1248;48.694;10.160;2023-08-01T01:41:28;9.83;;;5.23;;
2474;SDS011;1248;48.694;10.160;2023-08-01T01:43:55;9.50;;;5.60;;
2474;SDS011;1248;48.694;10.160;2023-08-01T01:46:22;11.90;;;5.53;;
2474;SDS011;1248;48.694;10.160;2023-08-01T01:48:49;10.37;;;5.33;;
2474;SDS011;1248;48.694;10.160;2023-08-01T01:51:16;7.40;;;5.50;;
2474;SDS011;1248;48.694;10.160;2023-08-01T01:53:43;12.00;;;5.53;;
2474;SDS011;1248;48.694;10.160;2023-08-01T01:56:11;8.27;;;5.53;;
2474;SDS011;1248;48.694;10.160;2023-08-01T01:58:38;9.13;;;5.17;;
2474;SDS011;1248;48.694;10.160;2023-08-01T02:01:05;9.77;;;5.50;;
2474;SDS011;1248;48.694;10.160;2023-08-01T02:03:33;6.97;;;5.03;;
2474;SDS011;1248;48.694;10.160;2023-08-01T02:06:00;7.80;;;4.67;;
2474;SDS011;1248;48.694;10.160;2023-08-01T02:08:28;8.57;;;6.10;;
2474;SDS011;1248;48.694;10.160;2023-08-01T02:10:55;7.43;;;4.70;;
2474;SDS011;1248;48.694;10.160;2023-08-01T02:13:25;8.63;;;5.70;;
2474;SDS011;1248;48.694;10.160;2023-08-01T02:15:52;9.80;;;5.50;;
2474;SDS011;1248;48.694;10.160;2023-08-01T02:18:21;7.00;;;5.50;;
2474;SDS011;1248;48.694;10.160;2023-08-01T02:20:48;7.33;;;4.97;;
2474;SDS011;1248;48.694;10.160;2023-08-01T02:23:15;7.57;;;5.50;;
2474;SDS011;1248;48.694;10.160;2023-08-01T02:25:45;12.57;;;5.17;;
2474;SDS011;1248;48.694;10.160;2023-08-01T02:28:12;8.53;;;5.50;;
2474;SDS011;1248;48.694;10.160;2023-08-01T02:30:40;10.53;;;4.67;;
2474;SDS011;1248;48.694;10.160;2023-08-01T02:33:07;7.20;;;5.27;;
2474;SDS011;1248;48.694;10.160;2023-08-01T02:35:34;6.33;;;4.53;;
2474;SDS011;1248;48.694;10.160;2023-08-01T02:38:02;10.60;;;5.20;;
2474;SDS011;1248;48.694;10.160;2023-08-01T02:40:29;7.37;;;5.00;;
2474;SDS011;1248;48.694;10.160;2023-08-01T02:42:56;9.77;;;4.87;;
2474;SDS011;1248;48.694;10.160;2023-08-01T02:45:23;7.17;;;5.77;;
2474;SDS011;1248;48.694;10.160;2023-08-01T02:47:52;9.13;;;5.87;;
2474;SDS011;1248;48.694;10.160;2023-08-01T02:50:19;8.40;;;5.57;;
2474;SDS011;1248;48.694;10.160;2023-08-01T02:52:46;11.40;;;5.93;;
2474;SDS011;1248;48.694;10.160;2023-08-01T02:55:13;7.73;;;5.70;;
2474;SDS011;1248;48.694;10.160;2023-08-01T02:57:40;8.00;;;5.00;;
2474;SDS011;1248;48.694;10.160;2023-08-01T03:00:07;10.30;;;5.40;;
2474;SDS011;1248;48.694;10.160;2023-08-01T03:02:37;6.13;;;5.17;;
2474;SDS011;1248;48.694;10.160;2023-08-01T03:05:07;8.40;;;5.87;;
2474;SDS011;1248;48.694;10.160;2023-08-01T03:07:35;10.87;;;6.27;;
2474;SDS011;1248;48.694;10.160;2023-08-01T03:10:02;9.03;;;6.00;;
2474;SDS011;1248;48.694;10.160;2023-08-01T03:12:29;10.17;;;5.83;;
2474;SDS011;1248;48.694;10.160;2023-08-01T03:14:56;10.63;;;5.50;;
2474;SDS011;1248;48.694;10.160;2023-08-01T03:17:23;9.67;;;6.30;;
2474;SDS011;1248;48.694;10.160;2023-08-01T03:19:50;13.20;;;6.70;;
2474;SDS011;1248;48.694;10.160;2023-08-01T03:22:19;10.23;;;6.33;;
2474;SDS011;1248;48.694;10.160;2023-08-01T03:24:47;9.77;;;5.60;;
2474;SDS011;1248;48.694;10.160;2023-08-01T03:27:14;11.93;;;6.13;;
2474;SDS011;1248;48.694;10.160;2023-08-01T03:29:41;15.47;;;6.30;;
2474;SDS011;1248;48.694;10.160;2023-08-01T03:32:08;10.80;;;6.07;;
2474;SDS011;1248;48.694;10.160;2023-08-01T03:34:35;8.67;;;6.10;;
2474;SDS011;1248;48.694;10.160;2023-08-01T03:37:03;7.80;;;5.83;;
2474;SDS011;1248;48.694;10.160;2023-08-01T03:39:31;7.67;;;5.67;;
2474;SDS011;1248;48.694;10.160;2023-08-01T03:41:58;11.47;;;6.03;;
2474;SDS011;1248;48.694;10.160;2023-08-01T03:44:25;8.57;;;5.40;;
2474;SDS011;1248;48.694;10.160;2023-08-01T03:46:52;9.03;;;5.67;;
2474;SDS011;1248;48.694;10.160;2023-08-01T03:49:19;8.80;;;5.50;;
2474;SDS011;1248;48.694;10.160;2023-08-01T03:51:47;9.70;;;5.47;;
2474;SDS011;1248;48.694;10.160;2023-08-01T03:54:14;7.53;;;5.13;;
2474;SDS011;1248;48.694;10.160;2023-08-01T03:56:43;13.43;;;6.83;;
2474;SDS011;1248;48.694;10.160;2023-08-01T03:59:11;7.60;;;5.13;;
2474;SDS011;1248;48.694;10.160;2023-08-01T04:01:39;7.20;;;4.77;;
2474;SDS011;1248;48.694;10.160;2023-08-01T04:04:06;12.07;;;5.57;;
2474;SDS011;1248;48.694;10.160;2023-08-01T04:06:33;9.37;;;5.87;;
2474;SDS011;1248;48.694;10.160;2023-08-01T04:09:01;10.10;;;5.50;;
2474;SDS011;1248;48.694;10.160;2023-08-01T04:11:28;9.80;;;6.50;;
2474;SDS011;1248;48.694;10.160;2023-08-01T04:13:57;12.87;;;5.57;;
2474;SDS011;1248;48.694;10.160;2023-08-01T04:16:24;8.83;;;5.10;;
2474;SDS011;1248;48.694;10.160;2023-08-01T04:18:51;15.80;;;5.90;;
2474;SDS011;1248;48.694;10.160;2023-08-01T04:21:18;9.07;;;5.43;;
2474;SDS011;1248;48.694;10.160;2023-08-01T04:23:45;8.60;;;5.30;;
2474;SDS011;1248;48.694;10.160;2023-08-01T04:26:12;8.17;;;5.50;;
2474;SDS011;1248;48.694;10.160;2023-08-01T04:28:39;11.40;;;6.00;;
2474;SDS011;1248;48.694;10.160;2023-08-01T04:31:07;7.30;;;4.80;;
2474;SDS011;1248;48.694;10.160;2023-08-01T04:33:34;7.90;;;5.30;;
2474;SDS011;1248;48.694;10.160;2023-08-01T04:36:01;9.17;;;5.10;;
2474;SDS011;1248;48.694;10.160;2023-08-01T04:38:29;9.27;;;4.60;;
2474;SDS011;1248;48.694;10.160;2023-08-01T04:40:56;9.07;;;5.53;;
2474;SDS011;1248;48.694;10.160;2023-08-01T04:43:23;6.73;;;4.87;;
2474;SDS011;1248;48.694;10.160;2023-08-01T04:45:50;9.33;;;5.33;;
2474;SDS011;1248;48.694;10.160;2023-08-01T04:48:18;12.40;;;6.00;;
2474;SDS011;1248;48.694;10.160;2023-08-01T04:50:45;9.10;;;5.40;;
2474;SDS011;1248;48.694;10.160;2023-08-01T04:53:12;11.40;;;5.50;;
2474;SDS011;1248;48.694;10.160;2023-08-01T04:55:39;8.67;;;5.87;;
2474;SDS011;1248;48.694;10.160;2023-08-01T04:58:07;9.50;;;5.50;;
2474;SDS011;1248;48.694;10.160;2023-08-01T05:00:34;9.90;;;6.33;;
2474;SDS011;1248;48.694;10.160;2023-08-01T05:03:01;11.10;;;5.43;;
2474;SDS011;1248;48.694;10.160;2023-08-01T05:05:29;8.23;;;5.30;;
2474;SDS011;1248;48.694;10.160;2023-08-01T05:07:56;10.10;;;5.43;;
2474;SDS011;1248;48.694;10.160;2023-08-01T05:10:23;8.70;;;5.67;;
2474;SDS011;1248;48.694;10.160;2023-08-01T05:12:50;9.77;;;6.17;;
2474;SDS011;1248;48.694;10.160;2023-08-01T05:15:17;9.10;;;5.90;;
2474;SDS011;1248;48.694;10.160;2023-08-01T05:17:44;6.73;;;4.73;;
2474;SDS011;1248;48.694;10.160;2023-08-01T05:20:11;6.70;;;5.27;;
2474;SDS011;1248;48.694;10.160;2023-08-01T05:22:40;9.47;;;6.20;;
2474;SDS011;1248;48.694;10.160;2023-08-01T05:25:07;7.90;;;4.50;;
2474;SDS011;1248;48.694;10.160;2023-08-01T05:27:34;7.93;;;4.60;;
2474;SDS011;1248;48.694;10.160;2023-08-01T05:30:01;12.13;;;5.63;;
2474;SDS011;1248;48.694;10.160;2023-08-01T05:32:28;7.03;;;4.13;;
2474;SDS011;1248;48.694;10.160;2023-08-01T05:34:56;9.80;;;5.43;;
2474;SDS011;1248;48.694;10.160;2023-08-01T05:37:23;12.57;;;5.30;;
2474;SDS011;1248;48.694;10.160;2023-08-01T05:39:51;10.60;;;5.70;;
2474;SDS011;1248;48.694;10.160;2023-08-01T05:42:18;10.37;;;5.40;;
2474;SDS011;1248;48.694;10.160;2023-08-01T05:44:45;12.60;;;5.97;;
2474;SDS011;1248;48.694;10.160;2023-08-01T05:47:12;9.57;;;5.37;;
2474;SDS011;1248;48.694;10.160;2023-08-01T05:49:39;11.20;;;5.83;;
2474;SDS011;1248;48.694;10.160;2023-08-01T05:52:07;8.03;;;5.13;;
2474;SDS011;1248;48.694;10.160;2023-08-01T05:54:34;10.80;;;5.23;;
2474;SDS011;1248;48.694;10.160;2023-08-01T05:57:03;9.70;;;5.43;;
2474;SDS011;1248;48.694;10.160;2023-08-01T05:59:30;7.80;;;5.17;;
2474;SDS011;1248;48.694;10.160;2023-08-01T06:01:57;6.70;;;3.60;;
2474;SDS011;1248;48.694;10.160;2023-08-01T06:04:24;12.83;;;5.67;;
2474;SDS011;1248;48.694;10.160;2023-08-01T06:06:51;5.67;;;4.30;;
2474;SDS011;1248;48.694;10.160;2023-08-01T06:09:19;6.70;;;4.57;;
2474;SDS011;1248;48.694;10.160;2023-08-01T06:11:46;6.63;;;4.20;;
2474;SDS011;1248;48.694;10.160;2023-08-01T06:14:14;6.87;;;4.50;;
2474;SDS011;1248;48.694;10.160;2023-08-01T06:16:42;7.00;;;4.70;;
2474;SDS011;1248;48.694;10.160;2023-08-01T06:19:09;6.60;;;4.70;;
2474;SDS011;1248;48.694;10.160;2023-08-01T06:21:36;8.33;;;4.90;;
2474;SDS011;1248;48.694;10.160;2023-08-01T06:24:03;8.60;;;4.60;;
2474;SDS011;1248;48.694;10.160;2023-08-01T06:26:30;7.50;;;5.00;;
2474;SDS011;1248;48.694;10.160;2023-08-01T06:28:57;9.67;;;4.60;;
2474;SDS011;1248;48.694;10.160;2023-08-01T06:31:26;7.53;;;5.63;;
2474;SDS011;1248;48.694;10.160;2023-08-01T06:33:53;8.30;;;5.20;;
2474;SDS011;1248;48.694;10.160;2023-08-01T06:36:20;7.30;;;4.60;;
2474;SDS011;1248;48.694;10.160;2023-08-01T06:38:47;12.73;;;5.00;;
2474;SDS011;1248;48.694;10.160;2023-08-01T06:41:14;6.60;;;4.50;;
2474;SDS011;1248;48.694;10.160;2023-08-01T06:43:41;7.93;;;4.97;;
2474;SDS011;1248;48.694;10.160;2023-08-01T06:46:08;8.60;;;4.87;;
2474;SDS011;1248;48.694;10.160;2023-08-01T06:48:36;8.77;;;4.80;;
2474;SDS011;1248;48.694;10.160;2023-08-01T06:51:03;13.53;;;4.73;;
2474;SDS011;1248;48.694;10.160;2023-08-01T06:53:30;7.40;;;4.70;;
2474;SDS011;1248;48.694;10.160;2023-08-01T06:55:57;10.50;;;5.13;;
2474;SDS011;1248;48.694;10.160;2023-08-01T06:58:24;8.50;;;5.73;;
2474;SDS011;1248;48.694;10.160;2023-08-01T07:00:51;9.37;;;5.00;;
2474;SDS011;1248;48.694;10.160;2023-08-01T07:03:18;10.47;;;5.43;;
2474;SDS011;1248;48.694;10.160;2023-08-01T07:05:47;7.80;;;5.40;;
2474;SDS011;1248;48.694;10.160;2023-08-01T07:08:14;6.90;;;4.77;;
2474;SDS011;1248;48.694;10.160;2023-08-01T07:10:41;9.63;;;4.30;;
2474;SDS011;1248;48.694;10.160;2023-08-01T07:13:08;8.27;;;4.63;;
2474;SDS011;1248;48.694;10.160;2023-08-01T07:15:35;11.77;;;5.43;;
2474;SDS011;1248;48.694;10.160;2023-08-01T07:18:02;6.00;;;4.67;;
2474;SDS011;1248;48.694;10.160;2023-08-01T07:20:29;7.47;;;5.10;;
2474;SDS011;1248;48.694;10.160;2023-08-01T07:22:57;8.00;;;4.60;;
2474;SDS011;1248;48.694;10.160;2023-08-01T07:25:24;7.87;;;4.57;;
2474;SDS011;1248;48.694;10.160;2023-08-01T07:27:51;6.80;;;4.40;;
2474;SDS011;1248;48.694;10.160;2023-08-01T07:30:18;6.23;;;3.80;;
2474;SDS011;1248;48.694;10.160;2023-08-01T07:32:45;7.50;;;4.20;;
2474;SDS011;1248;48.694;10.160;2023-08-01T07:35:13;8.07;;;4.10;;
2474;SDS011;1248;48.694;10.160;2023-08-01T07:37:40;6.20;;;4.70;;
2474;SDS011;1248;48.694;10.160;2023-08-01T07:40:09;8.80;;;4.80;;
2474;SDS011;1248;48.694;10.160;2023-08-01T07:42:36;7.50;;;4.60;;
2474;SDS011;1248;48.694;10.160;2023-08-01T07:45:04;7.80;;;3.93;;
2474;SDS011;1248;48.694;10.160;2023-08-01T07:47:32;8.87;;;5.10;;
2474;SDS011;1248;48.694;10.160;2023-08-01T07:49:59;8.70;;;5.10;;
2474;SDS011;1248;48.694;10.160;2023-08-01T07:52:26;7.50;;;4.37;;
2474;SDS011;1248;48.694;10.160;2023-08-01T07:54:53;9.33;;;4.77;;
2474;SDS011;1248;48.694;10.160;2023-08-01T07:57:24;8.83;;;4.20;;
2474;SDS011;1248;48.694;10.160;2023-08-01T07:59:51;13.40;;;6.17;;
2474;SDS011;1248;48.694;10.160;2023-08-01T08:02:18;8.73;;;5.87;;
2474;SDS011;1248;48.694;10.160;2023-08-01T08:04:45;5.93;;;4.83;;
2474;SDS011;1248;48.694;10.160;2023-08-01T08:07:12;6.03;;;4.47;;
2474;SDS011;1248;48.694;10.160;2023-08-01T08:09:39;5.70;;;4.60;;
2474;SDS011;1248;48.694;10.160;2023-08-01T08:12:06;8.80;;;5.03;;
2474;SDS011;1248;48.694;10.160;2023-08-01T08:14:35;8.50;;;4.83;;
2474;SDS011;1248;48.694;10.160;2023-08-01T08:17:03;5.77;;;4.47;;
2474;SDS011;1248;48.694;10.160;2023-08-01T08:19:30;6.93;;;5.17;;
2474;SDS011;1248;48.694;10.160;2023-08-01T08:21:57;13.23;;;4.67;;
2474;SDS011;1248;48.694;10.160;2023-08-01T08:24:24;8.40;;;4.70;;
2474;SDS011;1248;48.694;10.160;2023-08-01T08:26:51;5.20;;;4.20;;
2474;SDS011;1248;48.694;10.160;2023-08-01T08:29:18;8.27;;;4.80;;
2474;SDS011;1248;48.694;10.160;2023-08-01T08:31:46;6.50;;;4.23;;
2474;SDS011;1248;48.694;10.160;2023-08-01T08:34:13;7.47;;;4.37;;
2474;SDS011;1248;48.694;10.160;2023-08-01T08:36:40;7.23;;;4.90;;
2474;SDS011;1248;48.694;10.160;2023-08-01T08:39:07;15.80;;;4.53;;
2474;SDS011;1248;48.694;10.160;2023-08-01T08:41:37;7.43;;;4.40;;
2474;SDS011;1248;48.694;10.160;2023-08-01T08:44:07;10.33;;;4.60;;
2474;SDS011;1248;48.694;10.160;2023-08-01T08:46:37;8.77;;;4.90;;
2474;SDS011;1248;48.694;10.160;2023-08-01T08:49:09;11.60;;;5.03;;
2474;SDS011;1248;48.694;10.160;2023-08-01T08:51:36;10.63;;;6.10;;
2474;SDS011;1248;48.694;10.160;2023-08-01T08:54:04;11.63;;;5.60;;
2474;SDS011;1248;48.694;10.160;2023-08-01T08:56:32;10.80;;;5.90;;
2474;SDS011;1248;48.694;10.160;2023-08-01T08:59:00;12.30;;;6.33;;
2474;SDS011;1248;48.694;10.160;2023-08-01T09:01:27;10.77;;;5.70;;
2474;SDS011;1248;48.694;10.160;2023-08-01T09:03:56;9.00;;;6.50;;
2474;SDS011;1248;48.694;10.160;2023-08-01T09:06:27;7.07;;;5.43;;
2474;SDS011;1248;48.694;10.160;2023-08-01T09:08:55;10.30;;;5.30;;
2474;SDS011;1248;48.694;10.160;2023-08-01T09:11:25;8.90;;;5.93;;
2474;SDS011;1248;48.694;10.160;2023-08-01T09:13:52;9.43;;;6.10;;
2474;SDS011;1248;48.694;10.160;2023-08-01T09:16:20;10.13;;;6.00;;
2474;SDS011;1248;48.694;10.160;2023-08-01T09:18:47;8.60;;;5.40;;
2474;SDS011;1248;48.694;10.160;2023-08-01T09:21:17;15.00;;;8.83;;
2474;SDS011;1248;48.694;10.160;2023-08-01T09:23:46;13.50;;;7.27;;
2474;SDS011;1248;48.694;10.160;2023-08-01T09:26:13;8.47;;;5.77;;
2474;SDS011;1248;48.694;10.160;2023-08-01T09:28:40;8.30;;;6.10;;
2474;SDS011;1248;48.694;10.160;2023-08-01T09:31:07;10.20;;;6.10;;
2474;SDS011;1248;48.694;10.160;2023-08-01T09:33:38;8.10;;;5.93;;
2474;SDS011;1248;48.694;10.160;2023-08-01T09:36:06;7.43;;;5.70;;
2474;SDS011;1248;48.694;10.160;2023-08-01T09:38:34;16.43;;;7.13;;
2474;SDS011;1248;48.694;10.160;2023-08-01T09:41:02;12.40;;;8.07;;
2474;SDS011;1248;48.694;10.160;2023-08-01T09:43:33;10.53;;;6.37;;
2474;SDS011;1248;48.694;10.160;2023-08-01T09:46:01;13.87;;;7.40;;
2474;SDS011;1248;48.694;10.160;2023-08-01T09:48:29;17.50;;;7.80;;
2474;SDS011;1248;48.694;10.160;2023-08-01T09:51:06;12.63;;;6.73;;
2474;SDS011;1248;48.694;10.160;2023-08-01T09:53:33;11.60;;;7.57;;
2474;SDS011;1248;48.694;10.160;2023-08-01T09:56:02;22.33;;;7.40;;
2474;SDS011;1248;48.694;10.160;2023-08-01T09:58:31;11.10;;;6.30;;
2474;SDS011;1248;48.694;10.160;2023-08-01T10:00:59;7.63;;;5.60;;
2474;SDS011;1248;48.694;10.160;2023-08-01T10:03:27;11.50;;;6.23;;
2474;SDS011;1248;48.694;10.160;2023-08-01T10:05:55;10.03;;;6.60;;
2474;SDS011;1248;48.694;10.160;2023-08-01T10:08:22;10.03;;;5.93;;
2474;SDS011;1248;48.694;10.160;2023-08-01T10:10:49;10.17;;;6.27;;
2474;SDS011;1248;48.694;10.160;2023-08-01T10:13:20;7.53;;;5.03;;
2474;SDS011;1248;48.694;10.160;2023-08-01T10:15:47;7.80;;;5.20;;
2474;SDS011;1248;48.694;10.160;2023-08-01T10:18:14;7.50;;;5.10;;
2474;SDS011;1248;48.694;10.160;2023-08-01T10:20:42;9.67;;;5.77;;
2474;SDS011;1248;48.694;10.160;2023-08-01T10:23:10;6.13;;;4.70;;
2474;SDS011;1248;48.694;10.160;2023-08-01T10:25:38;9.57;;;5.30;;
2474;SDS011;1248;48.694;10.160;2023-08-01T10:28:05;6.80;;;4.70;;
2474;SDS011;1248;48.694;10.160;2023-08-01T10:30:34;8.07;;;5.03;;
2474;SDS011;1248;48.694;10.160;2023-08-01T10:33:01;7.43;;;4.33;;
2474;SDS011;1248;48.694;10.160;2023-08-01T10:35:31;6.93;;;4.50;;
2474;SDS011;1248;48.694;10.160;2023-08-01T10:38:05;5.00;;;4.20;;
2474;SDS011;1248;48.694;10.160;2023-08-01T10:40:33;12.00;;;4.17;;
2474;SDS011;1248;48.694;10.160;2023-08-01T10:43:01;6.17;;;4.37;;
2474;SDS011;1248;48.694;10.160;2023-08-01T10:45:28;7.23;;;4.43;;
2474;SDS011;1248;48.694;10.160;2023-08-01T10:48:06;5.50;;;3.93;;
2474;SDS011;1248;48.694;10.160;2023-08-01T10:50:34;10.23;;;5.03;;
2474;SDS011;1248;48.694;10.160;2023-08-01T10:53:02;9.00;;;4.73;;
2474;SDS011;1248;48.694;10.160;2023-08-01T10:55:38;5.90;;;4.07;;
2474;SDS011;1248;48.694;10.160;2023-08-01T10:58:06;5.87;;;3.60;;
2474;SDS011;1248;48.694;10.160;2023-08-01T11:00:33;6.83;;;4.57;;
2474;SDS011;1248;48.694;10.160;2023-08-01T11:03:00;7.43;;;4.50;;
2474;SDS011;1248;48.694;10.160;2023-08-01T11:05:28;7.20;;;3.70;;
2474;SDS011;1248;48.694;10.160;2023-08-01T11:07:55;5.00;;;2.90;;
2474;SDS011;1248;48.694;10.160;2023-08-01T11:10:24;4.53;;;2.40;;
2474;SDS011;1248;48.694;10.160;2023-08-01T11:12:51;4.60;;;3.20;;
2474;SDS011;1248;48.694;10.160;2023-08-01T11:15:19;3.67;;;2.23;;
2474;SDS011;1248;48.694;10.160;2023-08-01T11:17:47;3.37;;;2.33;;
2474;SDS011;1248;48.694;10.160;2023-08-01T11:20:15;3.40;;;2.17;;
2474;SDS011;1248;48.694;10.160;2023-08-01T11:22:54;2.20;;;1.77;;
2474;SDS011;1248;48.694;10.160;2023-08-01T11:25:35;3.10;;;1.50;;
2474;SDS011;1248;48.694;10.160;2023-08-01T11:28:05;3.53;;;1.87;;
2474;SDS011;1248;48.694;10.160;2023-08-01T11:30:33;2.47;;;1.63;;
2474;SDS011;1248;48.694;10.160;2023-08-01T11:33:00;3.00;;;1.30;;
2474;SDS011;1248;48.694;10.160;2023-08-01T11:35:28;3.80;;;1.60;;
2474;SDS011;1248;48.694;10.160;2023-08-01T11:37:57;8.00;;;1.57;;
2474;SDS011;1248;48.694;10.160;2023-08-01T11:40:24;2.85;;;1.58;;
2474;SDS011;1248;48.694;10.160;2023-08-01T11:42:56;5.40;;;1.40;;
2474;SDS011;1248;48.694;10.160;2023-08-01T11:45:23;2.03;;;1.43;;
2474;SDS011;1248;48.694;10.160;2023-08-01T11:47:50;2.13;;;1.53;;
2474;SDS011;1248;48.694;10.160;2023-08-01T11:50:20;2.90;;;1.50;;
2474;SDS011;1248;48.694;10.160;2023-08-01T11:52:48;2.40;;;1.67;;
2474;SDS011;1248;48.694;10.160;2023-08-01T11:55:20;3.77;;;2.00;;
2474;SDS011;1248;48.694;10.160;2023-08-01T11:57:52;4.10;;;2.00;;
2474;SDS011;1248;48.694;10.160;2023-08-01T12:00:23;3.30;;;2.03;;
2474;SDS011;1248;48.694;10.160;2023-08-01T12:02:51;3.07;;;2.00;;
2474;SDS011;1248;48.694;10.160;2023-08-01T12:05:21;3.57;;;2.03;;
2474;SDS011;1248;48.694;10.160;2023-08-01T12:07:49;4.30;;;1.70;;
2474;SDS011;1248;48.694;10.160;2023-08-01T12:10:16;3.70;;;1.80;;
2474;SDS011;1248;48.694;10.160;2023-08-01T12:12:45;1.43;;;1.20;;
2474;SDS011;1248;48.694;10.160;2023-08-01T12:15:13;1.30;;;1.03;;
2474;SDS011;1248;48.694;10.160;2023-08-01T12:17:41;1.20;;;0.90;;
2474;SDS011;1248;48.694;10.160;2023-08-01T12:20:08;1.50;;;1.00;;
2474;SDS011;1248;48.694;10.160;2023-08-01T12:22:35;1.80;;;1.27;;
2474;SDS011;1248;48.694;10.160;2023-08-01T12:25:03;1.63;;;1.00;;
2474;SDS011;1248;48.694;10.160;2023-08-01T12:27:30;1.63;;;1.00;;
2474;SDS011;1248;48.694;10.160;2023-08-01T12:29:58;1.30;;;1.00;;
2474;SDS011;1248;48.694;10.160;2023-08-01T12:32:25;2.27;;;0.90;;
2474;SDS011;1248;48.694;10.160;2023-08-01T12:34:52;1.67;;;1.00;;
2474;SDS011;1248;48.694;10.160;2023-08-01T12:37:19;2.50;;;1.20;;
2474;SDS011;1248;48.694;10.160;2023-08-01T12:39:46;1.30;;;0.80;;
2474;SDS011;1248;48.694;10.160;2023-08-01T12:42:13;1.40;;;1.00;;
2474;SDS011;1248;48.694;10.160;2023-08-01T12:44:40;1.63;;;1.10;;
2474;SDS011;1248;48.694;10.160;2023-08-01T12:47:09;1.30;;;1.00;;
2474;SDS011;1248;48.694;10.160;2023-08-01T12:49:37;1.90;;;1.70;;
2474;SDS011;1248;48.694;10.160;2023-08-01T12:52:05;1.80;;;1.30;;
2474;SDS011;1248;48.694;10.160;2023-08-01T12:54:32;1.23;;;1.10;;
2474;SDS011;1248;48.694;10.160;2023-08-01T12:56:59;1.80;;;1.20;;
2474;SDS011;1248;48.694;10.160;2023-08-01T12:59:26;2.13;;;0.90;;
2474;SDS011;1248;48.694;10.160;2023-08-01T13:01:53;2.33;;;1.10;;
2474;SDS011;1248;48.694;10.160;2023-08-01T13:04:21;1.70;;;1.00;;
2474;SDS011;1248;48.694;10.160;2023-08-01T13:06:48;1.50;;;0.97;;
2474;SDS011;1248;48.694;10.160;2023-08-01T13:09:15;1.40;;;1.00;;
2474;SDS011;1248;48.694;10.160;2023-08-01T13:11:42;1.47;;;1.10;;
2474;SDS011;1248;48.694;10.160;2023-08-01T13:14:09;2.57;;;1.00;;
2474;SDS011;1248;48.694;10.160;2023-08-01T13:16:37;1.80;;;0.90;;
2474;SDS011;1248;48.694;10.160;2023-08-01T13:19:04;1.30;;;1.00;;
2474;SDS011;1248;48.694;10.160;2023-08-01T13:21:33;1.20;;;1.00;;
2474;SDS011;1248;48.694;10.160;2023-08-01T13:24:00;1.93;;;1.00;;
2474;SDS011;1248;48.694;10.160;2023-08-01T13:26:30;4.90;;;1.10;;
2474;SDS011;1248;48.694;10.160;2023-08-01T13:28:57;1.70;;;1.20;;
2474;SDS011;1248;48.694;10.160;2023-08-01T13:31:25;2.53;;;1.33;;
2474;SDS011;1248;48.694;10.160;2023-08-01T13:33:52;3.80;;;1.00;;
2474;SDS011;1248;48.694;10.160;2023-08-01T13:36:19;1.87;;;1.10;;
2474;SDS011;1248;48.694;10.160;2023-08-01T13:38:48;1.40;;;1.10;;
2474;SDS011;1248;48.694;10.160;2023-08-01T13:41:15;2.00;;;1.07;;
2474;SDS011;1248;48.694;10.160;2023-08-01T13:43:42;6.00;;;1.23;;
2474;SDS011;1248;48.694;10.160;2023-08-01T13:46:11;1.30;;;1.00;;
2474;SDS011;1248;48.694;10.160;2023-08-01T13:48:40;1.73;;;1.17;;
2474;SDS011;1248;48.694;10.160;2023-08-01T13:51:07;1.50;;;1.00;;
2474;SDS011;1248;48.694;10.160;2023-08-01T13:53:34;2.90;;;1.33;;
2474;SDS011;1248;48.694;10.160;2023-08-01T13:56:06;1.70;;;1.10;;
2474;SDS011;1248;48.694;10.160;2023-08-01T13:58:33;2.30;;;1.10;;
2474;SDS011;1248;48.694;10.160;2023-08-01T14:01:01;1.50;;;1.00;;
2474;SDS011;1248;48.694;10.160;2023-08-01T14:03:29;1.30;;;1.10;;
2474;SDS011;1248;48.694;10.160;2023-08-01T14:05:56;7.23;;;1.20;;
2474;SDS011;1248;48.694;10.160;2023-08-01T14:08:23;1.63;;;1.13;;
2474;SDS011;1248;48.694;10.160;2023-08-01T14:10:50;1.63;;;1.20;;
2474;SDS011;1248;48.694;10.160;2023-08-01T14:13:19;1.30;;;1.10;;
2474;SDS011;1248;48.694;10.160;2023-08-01T14:15:46;2.03;;;1.23;;
2474;SDS011;1248;48.694;10.160;2023-08-01T14:18:13;1.83;;;1.10;;
2474;SDS011;1248;48.694;10.160;2023-08-01T14:20:40;1.40;;;1.00;;
2474;SDS011;1248;48.694;10.160;2023-08-01T14:23:09;3.17;;;1.20;;
2474;SDS011;1248;48.694;10.160;2023-08-01T14:25:36;3.43;;;1.30;;
2474;SDS011;1248;48.694;10.160;2023-08-01T14:28:03;1.70;;;1.13;;
2474;SDS011;1248;48.694;10.160;2023-08-01T14:30:32;1.93;;;1.10;;
2474;SDS011;1248;48.694;10.160;2023-08-01T14:32:59;3.43;;;1.30;;
2474;SDS011;1248;48.694;10.160;2023-08-01T14:35:27;2.43;;;1.27;;
2474;SDS011;1248;48.694;10.160;2023-08-01T14:37:54;2.33;;;1.20;;
2474;SDS011;1248;48.694;10.160;2023-08-01T14:40:21;2.40;;;1.70;;
2474;SDS011;1248;48.694;10.160;2023-08-01T14:42:49;2.37;;;1.60;;
2474;SDS011;1248;48.694;10.160;2023-08-01T14:45:16;3.10;;;1.47;;
2474;SDS011;1248;48.694;10.160;2023-08-01T14:47:44;2.73;;;1.20;;
2474;SDS011;1248;48.694;10.160;2023-08-01T14:50:12;2.37;;;1.50;;
2474;SDS011;1248;48.694;10.160;2023-08-01T14:52:39;7.47;;;1.40;;
2474;SDS011;1248;48.694;10.160;2023-08-01T14:55:07;1.40;;;1.10;;
2474;SDS011;1248;48.694;10.160;2023-08-01T14:57:34;1.63;;;1.20;;
2474;SDS011;1248;48.694;10.160;2023-08-01T15:00:02;4.10;;;1.23;;